Time;durP1;ratioP1;P1;durP2;ratioP2;P2;SDS_P1;SDS_P2;PMS_P1;PMS_P2;Temp;Humidity;BMP_temperature;BMP_pressure;BME280_temperature;BME280_humidity;BME280_pressure;Samples;Min_cycle;Max_cycle;Signal;HPM_P1;HPM_P2
2023/06/09 00:00:18;;;;;;;5.93;4.35;;;;;;;-143.21;69.26;71532.84;5053845;28;20194;-79
2023/06/09 00:02:47;;;;;;;13.48;4.75;;;;;;;-143.21;69.16;71530.88;5053607;28;20233;-78
2023/06/09 00:05:15;;;;;;;6.15;4.20;;;;;;;-143.21;69.24;71532.84;5053668;28;20641;-79
2023/06/09 00:07:42;;;;;;;7.70;4.75;;;;;;;-143.21;69.05;71534.81;5053108;28;20715;-79
2023/06/09 00:10:10;;;;;;;6.45;4.18;;;;;;;-143.21;68.98;71534.81;5053352;28;20300;-79
2023/06/09 00:12:36;;;;;;;6.82;4.55;;;;;;;-143.21;68.98;71542.75;5053440;28;20226;-78
2023/06/09 00:15:06;;;;;;;6.18;4.38;;;;;;;-143.21;69.21;71556.63;5053754;28;20202;-79
2023/06/09 00:17:32;;;;;;;12.23;4.63;;;;;;;-143.21;69.76;71564.56;5054147;28;20201;-79
2023/06/09 00:20:03;;;;;;;11.70;4.43;;;;;;;-143.21;70.29;71564.56;5053567;28;20209;-79
2023/06/09 00:22:31;;;;;;;8.32;4.35;;;;;;;-143.21;70.54;71570.53;5053394;28;20671;-79
2023/06/09 00:24:58;;;;;;;6.25;4.55;;;;;;;-143.21;70.44;71570.53;5053452;28;20228;-79
2023/06/09 00:27:25;;;;;;;6.00;4.30;;;;;;;-143.21;70.23;71564.56;5053264;28;20228;-79
2023/06/09 00:29:52;;;;;;;7.97;4.70;;;;;;;-143.21;69.77;71574.47;5053159;28;20280;-79
2023/06/09 00:32:20;;;;;;;9.93;4.70;;;;;;;-143.21;69.66;71576.47;5053892;28;20230;-80
2023/06/09 00:34:47;;;;;;;10.48;4.60;;;;;;;-143.21;69.95;71574.47;5054741;28;20194;-81
2023/06/09 00:37:14;;;;;;;6.78;4.57;;;;;;;-143.21;70.22;71572.50;5055209;28;20665;-81
2023/06/09 00:39:41;;;;;;;9.60;4.55;;;;;;;-143.21;70.62;71568.53;5053600;28;20206;-79
2023/06/09 00:42:08;;;;;;;7.07;4.82;;;;;;;-143.21;70.71;71570.53;5054215;28;20194;-80
2023/06/09 00:44:35;;;;;;;9.68;4.60;;;;;;;-143.21;71.17;71574.47;5053421;28;20206;-80
2023/06/09 00:47:02;;;;;;;10.25;5.10;;;;;;;-143.21;71.27;71576.47;5053557;28;20248;-80
2023/06/09 00:49:30;;;;;;;8.60;4.85;;;;;;;-143.21;71.14;71578.44;5053292;28;20249;-79
2023/06/09 00:51:58;;;;;;;7.57;4.70;;;;;;;-143.21;70.95;71582.41;5055489;28;20652;-81
2023/06/09 00:54:25;;;;;;;10.80;5.07;;;;;;;-143.21;71.10;71582.41;5058006;28;20711;-81
2023/06/09 00:56:52;;;;;;;6.15;4.82;;;;;;;-143.21;70.95;71582.41;5052611;28;20205;-81
2023/06/09 00:59:20;;;;;;;7.68;5.03;;;;;;;-143.21;71.68;71586.38;5052869;28;20202;-80
2023/06/09 01:01:47;;;;;;;6.63;5.07;;;;;;;-143.21;71.62;71592.31;5052878;28;20201;-78
2023/06/09 01:04:14;;;;;;;6.53;4.93;;;;;;;-143.21;71.93;71590.34;5052485;28;20244;-79
2023/06/09 01:06:50;;;;;;;8.95;5.25;;;;;;;-143.21;72.31;71598.28;5052744;28;20218;-79
2023/06/09 01:09:25;;;;;;;7.00;4.63;;;;;;;-143.21;72.80;71604.22;5052429;28;20182;-79
2023/06/09 01:12:15;;;;;;;9.45;5.03;;;;;;;-143.21;72.52;71608.19;5052711;28;20205;-80
2023/06/09 01:14:48;;;;;;;6.45;4.55;;;;;;;-143.21;72.95;71608.19;5052476;28;20609;-79
2023/06/09 01:17:18;;;;;;;9.52;5.13;;;;;;;-143.21;73.31;71602.25;5052116;28;20260;-77
2023/06/09 01:19:47;;;;;;;6.35;4.53;;;;;;;-143.21;73.17;71606.22;5053060;28;20229;-79
2023/06/09 01:22:42;;;;;;;8.95;5.00;;;;;;;-143.21;73.35;71618.09;5052206;28;20277;-78
2023/06/09 01:25:34;;;;;;;6.50;4.72;;;;;;;-143.21;73.52;71622.06;5053481;28;20593;-79
2023/06/09 01:28:05;;;;;;;6.90;4.93;;;;;;;-143.21;72.26;71624.06;5052356;28;20226;-78
2023/06/09 01:30:36;;;;;;;10.80;4.82;;;;;;;-143.21;71.54;71628.00;5052193;28;20224;-79
2023/06/09 01:33:08;;;;;;;8.02;4.70;;;;;;;-143.21;70.92;71641.91;5051834;28;20266;-79
2023/06/09 01:35:35;;;;;;;7.45;4.70;;;;;;;-143.21;70.36;71643.88;5052585;28;20194;-79
2023/06/09 01:38:03;;;;;;;10.57;5.30;;;;;;;-143.21;70.06;71639.91;5052136;28;20202;-78
2023/06/09 01:40:32;;;;;;;7.55;5.25;;;;;;;-143.21;69.53;71641.91;5052356;28;20217;-79
2023/06/09 01:43:01;;;;;;;9.32;4.60;;;;;;;-143.21;68.01;71653.78;5052346;28;20186;-79
2023/06/09 01:45:27;;;;;;;11.43;4.40;;;;;;;-143.21;67.74;71653.78;5051588;28;20616;-79
2023/06/09 01:47:54;;;;;;;5.95;4.30;;;;;;;-143.21;67.66;71651.81;5051550;28;20229;-78
2023/06/09 01:50:34;;;;;;;5.65;4.38;;;;;;;-143.21;66.76;71645.88;5051604;28;20202;-78
2023/06/09 01:53:05;;;;;;;7.68;4.30;;;;;;;-143.21;66.19;71653.78;5052453;28;20202;-78
2023/06/09 01:55:38;;;;;;;7.00;4.20;;;;;;;-143.21;64.70;71663.72;5051162;28;20647;-78
2023/06/09 01:58:10;;;;;;;6.38;4.55;;;;;;;-143.21;63.12;71655.78;5051797;28;20174;-78
2023/06/09 02:00:40;;;;;;;7.03;4.47;;;;;;;-143.21;62.96;71661.72;5051740;28;20229;-77
2023/06/09 02:03:08;;;;;;;6.40;4.20;;;;;;;-143.21;62.83;71669.66;5051842;28;20248;-78
2023/06/09 02:05:36;;;;;;;7.45;4.00;;;;;;;-143.21;62.40;71675.59;5051893;28;20280;-78
2023/06/09 02:08:04;;;;;;;9.20;4.35;;;;;;;-143.21;61.56;71671.63;5051210;28;20233;-78
2023/06/09 02:10:32;;;;;;;7.30;4.07;;;;;;;-143.21;61.51;71661.72;5050807;28;20209;-79
2023/06/09 02:13:12;;;;;;;8.82;4.20;;;;;;;-143.21;61.42;71671.63;5050768;28;20197;-78
2023/06/09 02:15:38;;;;;;;7.85;4.03;;;;;;;-143.21;61.28;71675.59;5051067;28;20244;-78
2023/06/09 02:18:05;;;;;;;6.88;4.28;;;;;;;-143.21;61.41;71675.59;5051227;28;20867;-78
2023/06/09 02:20:32;;;;;;;5.22;3.80;;;;;;;-143.21;61.23;71671.63;5051341;28;20206;-78
2023/06/09 02:22:59;;;;;;;6.28;3.95;;;;;;;-143.21;61.37;71673.63;5062581;28;20209;-78
2023/06/09 02:25:28;;;;;;;5.53;4.38;;;;;;;-143.21;61.27;71677.59;5071116;28;20198;-78
2023/06/09 02:27:55;;;;;;;8.20;4.00;;;;;;;-143.21;61.05;71673.63;5071229;28;20221;-78
2023/06/09 02:30:23;;;;;;;6.30;4.00;;;;;;;-143.21;61.21;71681.56;5071498;28;20197;-78
2023/06/09 02:32:49;;;;;;;6.03;4.40;;;;;;;-143.21;61.29;71671.63;5070927;28;20229;-79
2023/06/09 02:35:16;;;;;;;5.85;4.10;;;;;;;-143.21;61.49;71683.53;5071134;28;20691;-78
2023/06/09 02:37:43;;;;;;;5.60;4.03;;;;;;;-143.21;61.59;71681.56;5071187;28;20189;-79
2023/06/09 02:40:11;;;;;;;8.88;4.60;;;;;;;-143.21;61.42;71685.50;5058641;28;20202;-79
2023/06/09 02:42:37;;;;;;;5.75;3.80;;;;;;;-143.21;61.60;71681.56;5051017;28;20190;-79
2023/06/09 02:45:06;;;;;;;6.38;4.00;;;;;;;-143.21;61.81;71689.47;5051657;28;20197;-79
2023/06/09 02:47:34;;;;;;;7.35;4.20;;;;;;;-143.21;61.75;71681.56;5051144;28;20218;-80
2023/06/09 02:50:01;;;;;;;6.28;4.20;;;;;;;-143.21;61.46;71683.53;5050878;28;20240;-79
2023/06/09 02:52:28;;;;;;;8.52;4.03;;;;;;;-143.21;61.80;71685.50;5057971;28;20266;-80
2023/06/09 02:54:56;;;;;;;6.43;4.18;;;;;;;-143.21;61.95;71691.47;5071549;28;20281;-80
2023/06/09 02:57:22;;;;;;;5.53;4.03;;;;;;;-143.21;62.08;71697.41;5070869;28;20219;-80
2023/06/09 02:59:49;;;;;;;9.18;4.78;;;;;;;-143.21;61.80;71697.41;5070915;28;20668;-78
2023/06/09 03:02:17;;;;;;;7.10;4.18;;;;;;;-143.21;61.46;71703.34;5070910;28;20280;-79
2023/06/09 03:04:45;;;;;;;7.65;4.18;;;;;;;-143.21;62.05;71705.34;5074560;28;20677;-80
2023/06/09 03:07:13;;;;;;;6.93;4.25;;;;;;;-143.21;62.29;71705.34;5067916;28;20226;-79
2023/06/09 03:09:40;;;;;;;7.90;4.75;;;;;;;-143.21;62.27;71705.34;5054682;28;20289;-79
2023/06/09 03:12:08;;;;;;;6.82;4.18;;;;;;;-143.21;62.04;71705.34;5054890;28;20201;-80
2023/06/09 03:14:35;;;;;;;7.03;4.10;;;;;;;-143.21;62.33;71699.41;5054489;28;20649;-78
2023/06/09 03:17:01;;;;;;;8.95;4.35;;;;;;;-143.21;62.24;71707.31;5054472;28;20631;-79
2023/06/09 03:19:28;;;;;;;7.95;4.20;;;;;;;-143.21;62.15;71699.41;5054636;28;20201;-78
2023/06/09 03:21:57;;;;;;;7.35;4.75;;;;;;;-143.21;63.25;71707.31;5056663;28;20213;-79
2023/06/09 03:24:24;;;;;;;8.80;4.75;;;;;;;-143.21;62.99;71705.34;5072314;28;20200;-80
2023/06/09 03:26:52;;;;;;;5.78;4.15;;;;;;;-143.21;63.15;71705.34;5054207;28;20222;-78
2023/06/09 03:29:19;;;;;;;9.18;4.65;;;;;;;-143.21;63.07;71699.41;5053866;28;20256;-79
2023/06/09 03:31:49;;;;;;;12.13;5.00;;;;;;;-143.21;62.98;71701.38;5053535;28;20230;-79
2023/06/09 03:34:16;;;;;;;9.90;5.32;;;;;;;-143.21;63.43;71699.41;5053623;28;20194;-79
2023/06/09 03:36:42;;;;;;;7.10;4.82;;;;;;;-143.21;63.49;71699.41;5053603;28;20251;-79
2023/06/09 03:39:11;;;;;;;12.63;5.43;;;;;;;-143.21;63.49;71697.41;5053468;28;20665;-79
2023/06/09 03:41:37;;;;;;;11.82;5.65;;;;;;;-143.21;63.57;71709.31;5054271;28;20281;-79
2023/06/09 03:44:04;;;;;;;9.80;5.13;;;;;;;-143.21;63.41;71711.28;5053756;28;20194;-79
2023/06/09 03:46:31;;;;;;;8.25;5.18;;;;;;;-143.21;63.27;71711.28;5053410;28;20198;-80
2023/06/09 03:48:58;;;;;;;23.77;15.73;;;;;;;-143.21;63.60;71717.25;5053872;28;20202;-80
2023/06/09 03:51:26;;;;;;;18.95;12.27;;;;;;;-143.21;63.90;71723.19;5053509;28;20190;-79
2023/06/09 03:53:53;;;;;;;13.90;9.10;;;;;;;-143.21;63.85;71721.22;5062120;28;20285;-78
2023/06/09 03:56:21;;;;;;;9.83;6.87;;;;;;;-143.21;63.82;71725.16;5053965;28;20201;-79
2023/06/09 03:58:48;;;;;;;9.63;7.10;;;;;;;-143.21;64.80;71729.13;5053841;28;20205;-78
2023/06/09 04:01:17;;;;;;;12.77;6.53;;;;;;;-143.21;65.46;71727.16;5053852;28;20206;-78
2023/06/09 04:03:44;;;;;;;13.50;6.00;;;;;;;-143.21;65.88;71733.09;5051197;28;20366;-80
2023/06/09 04:06:11;;;;;;;22.27;6.47;;;;;;;-143.21;66.48;71737.06;5051377;28;20226;-80
2023/06/09 04:08:38;;;;;;;13.50;6.00;;;;;;;-143.21;65.90;71737.06;5053992;28;20226;-80
2023/06/09 04:11:04;;;;;;;14.77;6.40;;;;;;;-143.21;65.72;71733.09;5038725;28;20281;-80
2023/06/09 04:13:33;;;;;;;12.05;6.47;;;;;;;-143.21;65.59;71739.06;5039328;28;20210;-79
2023/06/09 04:15:59;;;;;;;13.00;5.90;;;;;;;-143.21;65.82;71737.06;5053256;28;20244;-78
2023/06/09 04:18:26;;;;;;;11.63;6.43;;;;;;;-143.21;65.86;71733.09;5053102;28;20190;-78
2023/06/09 04:20:53;;;;;;;14.10;6.30;;;;;;;-143.21;65.30;71729.13;5053484;28;20205;-79
2023/06/09 04:23:21;;;;;;;16.13;6.60;;;;;;;-143.21;64.91;71725.16;5067862;28;20586;-79
2023/06/09 04:25:48;;;;;;;15.77;6.85;;;;;;;-143.21;64.63;71723.19;5061883;28;20209;-79
2023/06/09 04:28:14;;;;;;;19.60;8.23;;;;;;;-143.21;65.10;71743.00;5053009;28;20895;-78
2023/06/09 04:30:43;;;;;;;18.37;7.67;;;;;;;-143.21;65.72;71741.03;5052864;28;20205;-80
2023/06/09 04:33:10;;;;;;;21.93;6.60;;;;;;;-143.21;65.86;71741.03;5052766;28;20222;-79
2023/06/09 04:35:37;;;;;;;10.88;6.55;;;;;;;-143.21;66.06;71739.06;5053414;28;20194;-79
2023/06/09 04:38:03;;;;;;;11.57;6.70;;;;;;;-143.21;66.17;71733.09;5053477;28;20194;-79
2023/06/09 04:40:30;;;;;;;11.17;6.17;;;;;;;-143.21;66.22;71735.09;5053272;28;20198;-79
2023/06/09 04:42:59;;;;;;;10.55;5.55;;;;;;;-143.21;65.88;71735.09;5053173;28;20201;-79
2023/06/09 04:45:27;;;;;;;10.88;5.50;;;;;;;-143.21;65.41;71735.09;5047960;28;20275;-79
2023/06/09 04:47:59;;;;;;;16.73;5.50;;;;;;;-143.21;65.29;71735.09;5052448;28;20221;-79
2023/06/09 04:50:28;;;;;;;13.02;6.07;;;;;;;-143.21;65.53;71741.03;5052720;28;20688;-81
2023/06/09 04:52:56;;;;;;;16.73;6.45;;;;;;;-143.21;65.27;71748.97;5064069;28;20266;-82
2023/06/09 04:55:25;;;;;;;13.13;6.05;;;;;;;-143.21;64.80;71746.97;5073189;28;20218;-82
2023/06/09 04:57:53;;;;;;;10.65;6.03;;;;;;;-143.21;64.89;71739.06;5073471;28;20197;-82
2023/06/09 05:00:21;;;;;;;10.50;6.15;;;;;;;-143.21;65.41;71735.09;5066266;28;20229;-81
2023/06/09 05:02:49;;;;;;;10.73;6.15;;;;;;;-143.21;65.89;71739.06;5052395;28;20198;-80
2023/06/09 05:05:18;;;;;;;13.25;7.13;;;;;;;-143.21;67.01;71750.94;5052686;28;20198;-81
2023/06/09 05:07:45;;;;;;;10.82;6.97;;;;;;;-143.21;67.61;71776.72;5053698;28;20310;-80
2023/06/09 05:10:12;;;;;;;17.27;6.85;;;;;;;-143.21;67.69;71782.69;5053220;28;20213;-80
2023/06/09 05:12:39;;;;;;;12.97;6.50;;;;;;;-143.21;67.76;71780.69;5054429;28;20197;-81
2023/06/09 05:15:07;;;;;;;15.27;7.13;;;;;;;-143.21;67.49;71784.66;5052985;28;20190;-80
2023/06/09 05:17:36;;;;;;;12.48;7.13;;;;;;;-143.21;67.34;71768.78;5057033;28;20247;-80
2023/06/09 05:20:05;;;;;;;10.23;6.97;;;;;;;-143.21;67.76;71762.84;5068981;28;20236;-79
2023/06/09 05:22:33;;;;;;;12.60;6.50;;;;;;;-143.21;68.36;71750.94;5058187;28;20194;-80
2023/06/09 05:25:00;;;;;;;14.20;6.88;;;;;;;-143.21;68.06;71743.00;5052110;28;20190;-80
2023/06/09 05:27:39;;;;;;;14.23;6.63;;;;;;;-143.21;67.36;71735.09;5053184;28;20226;-78
2023/06/09 05:30:07;;;;;;;13.15;5.93;;;;;;;-143.21;66.72;71729.13;5050245;28;20240;-83
2023/06/09 05:32:38;;;;;;;13.98;6.57;;;;;;;-143.21;65.48;71721.22;5049668;28;20751;-77
2023/06/09 05:35:24;;;;;;;15.65;6.47;;;;;;;-143.21;64.48;71703.34;5051351;28;20256;-78
2023/06/09 05:37:56;;;;;;;17.05;6.82;;;;;;;-143.21;64.10;71691.47;5050465;28;20248;-78
2023/06/09 05:40:22;;;;;;;12.38;6.30;;;;;;;-143.21;64.30;71679.56;5051447;28;20305;-76
2023/06/09 05:42:49;;;;;;;10.73;6.47;;;;;;;-143.21;63.84;71665.69;5051705;28;20198;-77
2023/06/09 05:45:16;;;;;;;13.55;6.47;;;;;;;-143.21;63.26;71659.75;5051721;28;20285;-77
2023/06/09 05:47:46;;;;;;;12.88;6.32;;;;;;;-143.21;63.20;71657.75;5051362;28;20218;-77
2023/06/09 05:50:15;;;;;;;9.32;6.35;;;;;;;-143.21;63.62;71645.88;5051597;28;20209;-77
2023/06/09 05:52:42;;;;;;;14.50;7.03;;;;;;;-143.21;63.16;71645.88;5060396;28;20193;-78
2023/06/09 05:55:10;;;;;;;11.77;6.38;;;;;;;-143.21;62.27;71635.94;5071795;28;20193;-77
2023/06/09 05:57:40;;;;;;;11.55;6.30;;;;;;;-143.21;62.41;71628.00;5071149;28;20194;-77
2023/06/09 06:00:09;;;;;;;13.50;6.63;;;;;;;-143.21;62.71;71624.06;5070938;28;20208;-77
2023/06/09 06:02:38;;;;;;;19.40;5.95;;;;;;;-143.21;62.01;71620.09;5054473;28;20209;-77
2023/06/09 06:05:05;;;;;;;13.77;6.30;;;;;;;-143.21;62.02;71618.09;5031768;28;20261;-77
2023/06/09 06:07:32;;;;;;;12.63;6.25;;;;;;;-143.21;61.69;71600.25;5032360;28;20685;-76
2023/06/09 06:09:59;;;;;;;14.02;6.75;;;;;;;-143.21;61.42;71598.28;5051332;28;20677;-76
2023/06/09 06:12:27;;;;;;;10.50;6.55;;;;;;;-143.21;61.51;71600.25;5052589;28;20201;-77
2023/06/09 06:14:54;;;;;;;11.68;7.00;;;;;;;-143.21;61.09;71594.31;5071205;28;20205;-78
2023/06/09 06:17:21;;;;;;;15.77;6.70;;;;;;;-143.21;60.47;71590.34;5070323;28;20263;-77
2023/06/09 06:19:47;;;;;;;12.40;6.45;;;;;;;-143.21;60.10;71588.38;5051039;28;20208;-77
2023/06/09 06:22:14;;;;;;;15.52;6.57;;;;;;;-143.21;59.60;71576.47;5055029;28;20221;-76
2023/06/09 06:24:41;;;;;;;14.60;6.18;;;;;;;-143.21;59.35;71566.56;5070858;28;20723;-76
2023/06/09 06:27:08;;;;;;;20.17;6.20;;;;;;;-143.21;58.96;71558.63;5070763;28;20251;-76
2023/06/09 06:29:38;;;;;;;12.48;6.13;;;;;;;-143.21;59.02;71554.66;5070173;28;20753;-77
2023/06/09 06:32:06;;;;;;;11.15;6.28;;;;;;;-143.21;58.08;71554.66;5056770;28;20249;-76
2023/06/09 06:34:33;;;;;;;11.82;6.28;;;;;;;-143.21;58.00;71556.63;5058763;28;20206;-77
2023/06/09 06:37:00;;;;;;;11.35;6.30;;;;;;;-143.21;58.38;71546.72;5050397;28;20182;-77
2023/06/09 06:39:27;;;;;;;11.15;6.30;;;;;;;-143.21;58.74;71538.78;5050265;28;20550;-76
2023/06/09 06:41:54;;;;;;;12.40;6.50;;;;;;;-143.21;58.58;71538.78;5050399;28;20198;-77
2023/06/09 06:44:21;;;;;;;15.32;5.88;;;;;;;-143.21;57.56;71524.91;5050557;28;20198;-76
2023/06/09 06:46:49;;;;;;;10.77;6.20;;;;;;;-143.21;57.30;71528.88;5050430;28;20194;-76
2023/06/09 06:49:16;;;;;;;8.80;6.50;;;;;;;-143.21;57.32;71520.94;5049906;28;20210;-76
2023/06/09 06:51:43;;;;;;;12.23;6.80;;;;;;;-143.21;57.63;71505.09;5051010;28;20194;-77
2023/06/09 06:54:09;;;;;;;11.75;7.00;;;;;;;-143.21;57.80;71505.09;5050169;28;20202;-76
2023/06/09 06:56:37;;;;;;;13.23;6.72;;;;;;;-143.21;58.26;71499.13;5050085;28;20692;-76
2023/06/09 06:59:04;;;;;;;11.35;6.15;;;;;;;-143.21;57.88;71487.25;5050111;28;20651;-76
2023/06/09 07:01:32;;;;;;;15.13;7.20;;;;;;;-143.21;57.50;71479.31;5049415;28;20190;-76
2023/06/09 07:04:00;;;;;;;11.88;6.45;;;;;;;-143.21;57.47;71473.38;5050210;28;20687;-76
2023/06/09 07:06:27;;;;;;;12.25;6.65;;;;;;;-143.21;57.40;71467.41;5050401;28;20205;-77
2023/06/09 07:08:55;;;;;;;16.88;6.32;;;;;;;-143.21;57.43;71455.53;5051108;28;20214;-77
2023/06/09 07:11:22;;;;;;;14.07;6.85;;;;;;;-143.21;57.00;71451.56;5052463;28;20604;-77
2023/06/09 07:13:51;;;;;;;10.77;5.82;;;;;;;-143.21;57.14;71447.59;5050667;28;20261;-76
2023/06/09 07:16:18;;;;;;;13.48;6.60;;;;;;;-143.21;57.24;71433.72;5049669;28;20305;-75
2023/06/09 07:18:45;;;;;;;12.30;6.43;;;;;;;-143.21;57.32;71423.78;5050403;28;20190;-76
2023/06/09 07:21:13;;;;;;;12.23;7.07;;;;;;;-143.21;56.85;71421.81;5052518;28;20273;-79
2023/06/09 07:23:40;;;;;;;15.38;6.30;;;;;;;-143.21;56.61;71407.94;5067119;28;20198;-76
2023/06/09 07:26:06;;;;;;;12.68;6.40;;;;;;;-143.21;56.32;71402.00;5070506;28;20196;-76
2023/06/09 07:28:33;;;;;;;12.00;6.70;;;;;;;-143.21;55.84;71390.09;5070179;28;20217;-77
2023/06/09 07:31:00;;;;;;;12.73;6.80;;;;;;;-143.21;55.72;71378.19;5066537;28;20225;-77
2023/06/09 07:33:32;;;;;;;13.07;6.38;;;;;;;-143.21;56.14;71380.19;5050585;28;20198;-77
2023/06/09 07:35:59;;;;;;;17.38;7.50;;;;;;;-143.21;56.29;71376.22;5050009;28;20190;-77
2023/06/09 07:38:30;;;;;;;14.38;6.50;;;;;;;-143.21;55.92;71362.34;5048734;28;20202;-76
2023/06/09 07:40:57;;;;;;;17.27;7.13;;;;;;;-143.21;55.72;71354.41;5050636;28;20201;-76
2023/06/09 07:43:24;;;;;;;11.60;6.80;;;;;;;-143.21;55.93;71346.47;5049477;28;20198;-76
2023/06/09 07:45:50;;;;;;;16.42;6.45;;;;;;;-143.21;55.82;71326.66;5049503;28;20190;-77
2023/06/09 07:48:17;;;;;;;18.50;7.15;;;;;;;-143.21;55.82;71322.69;5049099;28;20245;-77
2023/06/09 07:50:45;;;;;;;14.18;7.22;;;;;;;-143.21;55.81;71320.69;5073468;28;20201;-78
2023/06/09 07:53:12;;;;;;;12.65;6.40;;;;;;;-143.21;56.01;71308.81;5058121;28;20225;-77
2023/06/09 07:55:40;;;;;;;12.38;6.60;;;;;;;-143.21;56.40;71300.88;5054500;28;20206;-79
2023/06/09 07:58:07;;;;;;;11.70;6.28;;;;;;;-143.21;55.95;71283.03;5054270;28;20194;-78
2023/06/09 08:00:34;;;;;;;18.65;6.47;;;;;;;-143.21;55.98;71271.13;5054500;28;20226;-77
2023/06/09 08:03:04;;;;;;;12.73;6.20;;;;;;;-143.21;55.42;71251.31;5060477;28;20186;-80
2023/06/09 08:05:31;;;;;;;14.20;6.63;;;;;;;-143.21;55.08;71241.41;5071535;28;20201;-77
2023/06/09 08:08:01;;;;;;;12.63;6.30;;;;;;;-143.21;54.20;71229.50;5073873;28;20205;-78
2023/06/09 08:10:28;;;;;;;13.35;6.97;;;;;;;-143.21;54.30;71225.53;5057018;28;20693;-78
2023/06/09 08:12:56;;;;;;;11.30;6.22;;;;;;;-143.21;54.21;71213.66;5054598;28;20232;-79
2023/06/09 08:15:23;;;;;;;13.57;6.57;;;;;;;-143.21;53.99;71199.78;5053212;28;20202;-79
2023/06/09 08:17:50;;;;;;;9.32;6.50;;;;;;;-143.21;53.30;71193.81;5052877;28;20197;-77
2023/06/09 08:20:17;;;;;;;12.07;6.53;;;;;;;-143.21;53.49;71189.84;5067952;28;20220;-77
2023/06/09 08:22:44;;;;;;;14.82;6.70;;;;;;;-143.21;53.07;71172.00;5054763;28;20209;-76
2023/06/09 08:25:11;;;;;;;11.35;6.45;;;;;;;-143.21;52.56;71158.13;5053429;28;20213;-77
2023/06/09 08:27:38;;;;;;;15.60;6.43;;;;;;;-143.21;52.86;71158.13;5053361;28;20205;-76
2023/06/09 08:30:08;;;;;;;15.05;6.47;;;;;;;-143.21;52.90;71146.25;5052503;28;20692;-78
2023/06/09 08:32:36;;;;;;;13.48;7.07;;;;;;;-143.21;53.43;71146.25;5052103;28;20234;-78
2023/06/09 08:35:07;;;;;;;15.15;7.13;;;;;;;-143.21;53.30;71124.44;5051766;28;20325;-78
2023/06/09 08:37:36;;;;;;;13.05;6.00;;;;;;;-143.21;52.41;71118.50;5049184;28;20285;-76
2023/06/09 08:40:05;;;;;;;13.25;6.30;;;;;;;-143.21;52.99;71114.53;5052122;28;20553;-79
2023/06/09 08:42:32;;;;;;;12.60;6.40;;;;;;;-143.21;52.69;71096.69;5051888;28;20190;-81
2023/06/09 08:45:01;;;;;;;21.83;6.82;;;;;;;-143.21;52.12;71082.81;5063698;28;20197;-80
2023/06/09 08:47:31;;;;;;;17.00;6.43;;;;;;;-143.21;51.39;71074.88;5073147;28;20185;-80
2023/06/09 08:49:59;;;;;;;13.82;6.40;;;;;;;-143.21;51.12;71059.00;5063007;28;20210;-80
2023/06/09 08:52:26;;;;;;;10.20;6.78;;;;;;;-143.21;50.28;71041.16;5053654;28;20699;-79
2023/06/09 08:54:54;;;;;;;13.20;6.32;;;;;;;-143.21;50.26;71043.16;5062280;28;20185;-79
2023/06/09 08:57:28;;;;;;;12.20;6.38;;;;;;;-143.21;50.63;71041.16;5060255;28;20213;-79
2023/06/09 08:59:55;;;;;;;9.85;6.38;;;;;;;-143.21;50.93;71035.22;5052199;28;20194;-78
2023/06/09 09:02:33;;;;;;;14.25;6.55;;;;;;;-143.21;50.88;71023.34;5051698;28;20201;-79
2023/06/09 09:05:02;;;;;;;11.20;6.35;;;;;;;-143.21;50.72;71009.44;5052866;28;20209;-79
2023/06/09 09:07:29;;;;;;;8.27;6.38;;;;;;;-143.21;50.15;71003.50;5052719;28;20630;-79
2023/06/09 09:09:58;;;;;;;11.40;6.18;;;;;;;-143.21;50.68;70997.56;5052593;28;20257;-79
2023/06/09 09:12:25;;;;;;;12.65;6.68;;;;;;;-143.21;50.36;70985.66;5052591;28;20198;-80
2023/06/09 09:14:52;;;;;;;14.43;6.57;;;;;;;-143.21;50.94;70975.75;5052093;28;20701;-79
2023/06/09 09:17:18;;;;;;;9.52;6.38;;;;;;;-143.21;50.78;70955.94;5051929;28;20248;-79
2023/06/09 09:19:48;;;;;;;14.73;6.25;;;;;;;-143.21;50.23;70946.03;5051884;28;20190;-79
2023/06/09 09:22:16;;;;;;;13.43;7.30;;;;;;;-143.21;48.75;70930.16;5057113;28;20201;-79
2023/06/09 09:24:46;;;;;;;10.60;6.10;;;;;;;-143.21;48.84;70916.28;5071820;28;20640;-78
2023/06/09 09:27:17;;;;;;;14.95;6.20;;;;;;;-143.21;49.18;70910.34;5071730;28;20901;-78
2023/06/09 09:29:44;;;;;;;16.25;6.55;;;;;;;-143.21;48.48;70900.41;5071796;28;20221;-80
2023/06/09 09:32:11;;;;;;;10.25;6.13;;;;;;;-143.21;47.91;70888.53;5070779;28;20792;-80
2023/06/09 09:34:41;;;;;;;11.90;6.38;;;;;;;-143.21;48.41;70882.59;5071470;28;20805;-80
2023/06/09 09:37:15;;;;;;;14.57;6.72;;;;;;;-143.21;48.86;70876.63;5073952;28;20243;-80
2023/06/09 09:39:50;;;;;;;12.75;6.05;;;;;;;-143.21;48.39;70860.78;5074363;28;20278;-80
2023/06/09 09:42:18;;;;;;;11.13;5.95;;;;;;;-143.21;48.59;70840.97;5072010;28;20193;-80
2023/06/09 09:44:47;;;;;;;10.07;6.05;;;;;;;-143.21;47.71;70819.16;5071377;28;20279;-80
2023/06/09 09:47:15;;;;;;;15.77;7.10;;;;;;;-143.21;47.32;70801.31;5071998;28;20601;-81
2023/06/09 09:49:53;;;;;;;12.02;6.05;;;;;;;-143.21;46.88;70793.38;5072099;28;20225;-80
2023/06/09 09:52:25;;;;;;;10.77;6.30;;;;;;;-143.21;46.73;70777.53;5066383;28;20224;-82
2023/06/09 09:54:54;;;;;;;11.98;6.15;;;;;;;-143.21;46.18;70761.66;5052109;28;20210;-82
2023/06/09 09:57:22;;;;;;;10.50;6.15;;;;;;;-143.21;45.43;70755.72;5052149;28;20216;-82
2023/06/09 09:59:50;;;;;;;9.68;6.28;;;;;;;-143.21;45.47;70743.81;5055002;28;20194;-84
2023/06/09 10:02:23;;;;;;;10.75;5.78;;;;;;;-143.21;45.47;70729.94;5053893;28;20198;-81
2023/06/09 10:04:52;;;;;;;8.02;5.65;;;;;;;-143.21;44.10;70725.97;5055598;28;20665;-84
2023/06/09 10:07:22;;;;;;;10.27;5.15;;;;;;;-143.21;43.63;70722.03;5051954;28;20201;-81
2023/06/09 10:09:51;;;;;;;6.70;4.68;;;;;;;-143.21;43.01;70712.09;5052059;28;20284;-81
2023/06/09 10:12:20;;;;;;;8.20;4.85;;;;;;;-143.21;43.26;70696.25;5051838;28;20285;-81
2023/06/09 10:14:49;;;;;;;8.80;5.03;;;;;;;-143.21;43.88;70684.34;5050552;28;20198;-80
2023/06/09 10:17:19;;;;;;;9.88;4.75;;;;;;;-143.21;44.37;70668.50;5060451;28;20228;-81
2023/06/09 10:19:47;;;;;;;10.35;5.45;;;;;;;-143.21;43.65;70644.72;5051613;28;20601;-82
2023/06/09 10:22:14;;;;;;;7.55;5.45;;;;;;;-143.21;44.27;70616.97;5051541;28;20206;-84
2023/06/09 10:24:43;;;;;;;10.32;5.18;;;;;;;-143.21;43.50;70599.13;5051832;28;20681;-83
2023/06/09 10:27:10;;;;;;;13.43;6.30;;;;;;;-143.21;42.93;70589.22;5051289;28;20198;-82
2023/06/09 10:29:38;;;;;;;10.75;6.43;;;;;;;-143.21;42.81;70575.34;5050896;28;20214;-83
2023/06/09 10:32:07;;;;;;;10.52;6.05;;;;;;;-143.21;43.14;70555.50;5052062;28;20233;-80
2023/06/09 10:34:35;;;;;;;7.50;5.50;;;;;;;-143.21;43.28;70535.69;5051163;28;20194;-81
2023/06/09 10:37:02;;;;;;;8.85;5.55;;;;;;;-143.21;42.61;70515.88;5050606;28;20228;-79
2023/06/09 10:39:43;;;;;;;9.73;5.50;;;;;;;-143.21;43.01;70486.16;5042624;28;20301;-81
2023/06/09 10:42:19;;;;;;;9.30;5.40;;;;;;;-143.21;41.99;70468.31;5044469;28;20248;-80
2023/06/09 10:44:59;;;;;;;8.55;4.90;;;;;;;-143.21;40.14;70456.41;5050742;28;20205;-80
2023/06/09 10:47:43;;;;;;;10.27;5.25;;;;;;;-143.21;40.93;70436.59;5051062;28;20192;-79
2023/06/09 10:50:25;;;;;;;8.40;4.45;;;;;;;-143.21;39.05;70412.81;5070024;28;20301;-80
2023/06/09 10:53:08;;;;;;;10.07;4.25;;;;;;;-143.21;37.78;70406.84;5058936;28;20687;-81
2023/06/09 10:55:35;;;;;;;10.85;4.40;;;;;;;-143.21;39.52;70400.91;5050361;28;20197;-80
2023/06/09 10:58:26;;;;;;;7.03;4.97;;;;;;;-143.21;37.85;70400.91;5048552;28;20206;-80
2023/06/09 11:01:07;;;;;;;12.25;4.28;;;;;;;-143.21;38.30;70389.03;5046993;28;20206;-78
2023/06/09 11:03:34;;;;;;;8.90;4.45;;;;;;;-143.21;37.92;70365.25;5044843;28;20675;-77
2023/06/09 11:06:01;;;;;;;8.07;4.25;;;;;;;-143.21;38.21;70345.41;5047443;28;20205;-77
2023/06/09 11:09:12;;;;;;;9.35;4.35;;;;;;;-143.21;37.52;70315.69;5047106;28;20252;-78
2023/06/09 11:11:49;;;;;;;7.13;4.07;;;;;;;-143.21;37.37;70301.81;5028007;28;20221;-78
2023/06/09 11:14:51;;;;;;;6.72;3.75;;;;;;;-143.21;35.76;70307.75;5059349;28;20649;-78
2023/06/09 11:17:22;;;;;;;4.95;3.63;;;;;;;-143.21;36.24;70285.97;5068685;28;20235;-78
2023/06/09 11:19:49;;;;;;;4.47;3.75;;;;;;;-143.21;36.39;70278.03;5068181;28;20987;-78